createdAt,value
2022-08-14T00:00:20.062Z,2.10
2022-08-14T00:02:22.142Z,2.35
2022-08-14T00:04:34.249Z,3.25
2022-08-14T00:06:38.192Z,2.67
2022-08-14T00:08:44.931Z,2.67
2022-08-14T00:10:52.998Z,2.75
2022-08-14T00:12:57.227Z,3.00
2022-08-14T00:15:00.752Z,2.92
2022-08-14T00:17:05.618Z,2.80
2022-08-14T00:19:19.792Z,3.00
2022-08-14T00:21:28.413Z,3.10
2022-08-14T00:23:33.531Z,3.43
2022-08-14T00:25:41.804Z,3.28
2022-08-14T00:27:45.344Z,3.38
2022-08-14T00:29:51.170Z,3.08
2022-08-14T00:31:55.952Z,3.25
2022-08-14T00:33:58.764Z,2.83
2022-08-14T00:36:36.955Z,2.85
2022-08-14T00:38:44.887Z,3.72
2022-08-14T00:40:48.501Z,3.10
2022-08-14T00:42:56.190Z,2.97
2022-08-14T00:44:58.643Z,2.85
2022-08-14T00:47:03.683Z,2.90
2022-08-14T00:49:11.453Z,2.72
2022-08-14T00:51:16.677Z,2.72
2022-08-14T00:53:18.687Z,3.00
2022-08-14T00:55:23.238Z,2.70
2022-08-14T00:57:28.107Z,2.25
2022-08-14T00:59:31.812Z,2.70
2022-08-14T01:01:46.248Z,2.85
2022-08-14T01:03:49.671Z,2.80
2022-08-14T01:05:55.854Z,2.30
2022-08-14T01:08:02.040Z,2.80
2022-08-14T01:10:06.065Z,2.47
2022-08-14T01:12:09.296Z,2.40
2022-08-14T01:14:25.284Z,3.10
2022-08-14T01:16:31.634Z,3.00
2022-08-14T01:18:57.763Z,2.53
2022-08-14T01:21:08.369Z,2.85
2022-08-14T01:23:18.558Z,2.45
2022-08-14T01:25:21.095Z,2.10
2022-08-14T01:27:25.040Z,2.53
2022-08-14T01:29:58.860Z,2.92
2022-08-14T01:31:52.741Z,2.45
2022-08-14T01:35:18.199Z,2.90
2022-08-14T01:36:23.208Z,2.70
2022-08-14T01:38:26.635Z,2.72
2022-08-14T01:40:36.323Z,2.50
2022-08-14T01:42:44.301Z,2.45
2022-08-14T01:44:54.353Z,1.88
2022-08-14T01:47:01.119Z,2.70
2022-08-14T01:49:08.729Z,2.60
2022-08-14T01:51:19.192Z,2.30
2022-08-14T01:53:22.772Z,3.38
2022-08-14T01:55:31.553Z,2.40
2022-08-14T01:58:01.542Z,2.65
2022-08-14T02:00:01.116Z,2.58
2022-08-14T02:02:19.036Z,3.35
2022-08-14T02:04:55.772Z,3.00
2022-08-14T02:06:48.562Z,2.20
2022-08-14T02:08:57.019Z,2.10
2022-08-14T02:11:23.325Z,2.05
2022-08-14T02:13:25.444Z,2.28
2022-08-14T02:15:27.816Z,2.58
2022-08-14T02:17:33.382Z,2.40
2022-08-14T02:19:36.067Z,2.75
2022-08-14T02:21:50.389Z,2.47
2022-08-14T02:23:54.558Z,2.33
2022-08-14T02:25:56.636Z,3.05
2022-08-14T02:28:25.300Z,2.80
2022-08-14T02:30:21.417Z,3.15
2022-08-14T02:32:30.575Z,3.00
2022-08-14T02:34:38.708Z,2.90
2022-08-14T02:37:03.603Z,2.90
2022-08-14T02:39:10.291Z,2.72
2022-08-14T02:41:13.507Z,3.20
2022-08-14T02:43:15.318Z,3.10
2022-08-14T02:45:17.736Z,3.13
2022-08-14T02:47:20.575Z,3.50
2022-08-14T02:49:26.766Z,2.83
2022-08-14T02:51:36.734Z,3.63
2022-08-14T02:53:42.241Z,3.83
2022-08-14T02:55:44.356Z,3.30
2022-08-14T02:57:51.782Z,3.25
2022-08-14T03:00:00.507Z,3.15
2022-08-14T03:02:04.611Z,3.38
2022-08-14T03:04:07.713Z,3.33
2022-08-14T03:06:20.551Z,3.30
2022-08-14T03:08:38.433Z,3.15
2022-08-14T03:10:42.073Z,3.00
2022-08-14T03:12:51.026Z,3.85
2022-08-14T03:14:53.637Z,2.97
2022-08-14T03:16:55.862Z,3.67
2022-08-14T03:19:01.027Z,3.10
2022-08-14T03:21:06.131Z,3.03
2022-08-14T03:23:09.763Z,3.28
2022-08-14T03:25:12.392Z,3.20
2022-08-14T03:27:15.709Z,3.30
2022-08-14T03:29:20.901Z,3.85
2022-08-14T03:31:28.129Z,3.13
2022-08-14T03:33:37.876Z,3.88
2022-08-14T03:36:00.409Z,3.17
2022-08-14T03:39:15.934Z,3.40
2022-08-14T03:40:34.152Z,3.00
2022-08-14T03:42:37.072Z,4.30
2022-08-14T03:45:20.312Z,4.20
2022-08-14T03:47:06.782Z,3.28
2022-08-14T03:49:10.405Z,3.33
2022-08-14T03:51:16.121Z,3.40
2022-08-14T03:53:20.267Z,3.28
2022-08-14T03:55:22.231Z,3.40
2022-08-14T03:57:24.515Z,3.22
2022-08-14T03:59:28.409Z,3.33
2022-08-14T04:01:39.203Z,2.95
2022-08-14T04:03:48.448Z,3.30
2022-08-14T04:05:57.121Z,3.22
2022-08-14T04:08:30.038Z,3.05
2022-08-14T04:10:33.068Z,2.88
2022-08-14T04:12:36.186Z,3.17
2022-08-14T04:14:38.137Z,2.92
2022-08-14T04:16:43.657Z,2.88
2022-08-14T04:18:48.336Z,2.80
2022-08-14T04:20:54.664Z,2.80
2022-08-14T04:22:57.294Z,3.15
2022-08-14T04:25:04.904Z,3.13
2022-08-14T04:27:17.469Z,2.90
2022-08-14T04:29:19.324Z,2.85
2022-08-14T04:32:01.030Z,2.78
2022-08-14T04:33:46.984Z,3.00
2022-08-14T04:35:56.313Z,3.00
2022-08-14T04:38:37.292Z,2.45
2022-08-14T04:40:58.955Z,3.28
2022-08-14T04:43:20.922Z,3.28
2022-08-14T04:45:24.515Z,3.15
2022-08-14T04:47:46.227Z,2.60
2022-08-14T04:49:56.877Z,2.72
2022-08-14T04:52:15.507Z,2.88
2022-08-14T04:54:21.225Z,2.83
2022-08-14T04:56:30.925Z,2.70
2022-08-14T04:58:37.500Z,3.13
2022-08-14T05:00:41.554Z,2.30
2022-08-14T05:02:43.764Z,2.70
2022-08-14T05:04:57.280Z,3.05
2022-08-14T05:07:00.485Z,2.65
2022-08-14T05:09:02.185Z,2.47
2022-08-14T05:11:06.703Z,2.67
2022-08-14T05:13:15.831Z,2.57
2022-08-14T05:15:19.345Z,2.65
2022-08-14T05:17:28.979Z,2.67
2022-08-14T05:21:54.325Z,2.47
2022-08-14T05:22:16.453Z,2.58
2022-08-14T05:24:19.709Z,2.60
2022-08-14T05:26:23.528Z,2.70
2022-08-14T05:28:27.683Z,2.75
2022-08-14T05:30:30.197Z,3.58
2022-08-14T05:32:31.970Z,2.90
2022-08-14T05:34:34.007Z,3.80
2022-08-14T05:36:36.609Z,3.00
2022-08-14T05:38:44.607Z,3.33
2022-08-14T05:40:49.550Z,3.33
2022-08-14T05:42:52.712Z,3.53
2022-08-14T05:44:55.913Z,3.65
2022-08-14T05:46:58.924Z,3.75
2022-08-14T05:49:00.644Z,4.30
2022-08-14T05:51:02.347Z,3.80
2022-08-14T05:53:04.179Z,2.97
2022-08-14T05:55:08.594Z,3.90
2022-08-14T05:57:10.279Z,3.30
2022-08-14T05:59:13.223Z,2.75
2022-08-14T06:01:18.550Z,2.40
2022-08-14T06:03:22.556Z,3.20
2022-08-14T06:05:28.754Z,2.78
2022-08-14T06:07:30.990Z,2.75
2022-08-14T06:09:35.953Z,2.90
2022-08-14T06:11:42.119Z,2.97
2022-08-14T06:13:45.970Z,2.88
2022-08-14T06:15:49.466Z,2.53
2022-08-14T06:18:03.831Z,2.38
2022-08-14T06:20:05.754Z,2.35
2022-08-14T06:22:12.049Z,2.70
2022-08-14T06:24:18.057Z,2.20
2022-08-14T06:26:22.151Z,2.38
2022-08-14T06:28:27.141Z,3.17
2022-08-14T06:30:46.487Z,2.65
2022-08-14T06:32:52.862Z,1.98
2022-08-14T06:35:04.169Z,2.28
2022-08-14T06:37:13.643Z,2.58
2022-08-14T06:39:18.599Z,2.70
2022-08-14T06:44:00.817Z,2.50
2022-08-14T06:46:04.227Z,2.30
2022-08-14T06:48:17.299Z,2.10
2022-08-14T06:50:21.758Z,2.33
2022-08-14T06:52:30.051Z,1.90
2022-08-14T06:54:32.089Z,2.42
2022-08-14T06:56:34.063Z,2.55
2022-08-14T06:58:36.887Z,2.10
2022-08-14T07:00:38.976Z,1.90
2022-08-14T07:02:59.862Z,2.55
2022-08-14T07:05:22.837Z,2.13
2022-08-14T07:07:25.102Z,2.28
2022-08-14T07:09:43.719Z,1.73
2022-08-14T07:11:52.319Z,1.85
2022-08-14T07:13:53.966Z,2.40
2022-08-14T07:15:58.565Z,1.90
2022-08-14T07:18:08.973Z,2.08
2022-08-14T07:20:11.340Z,1.90
2022-08-14T07:22:20.261Z,2.47
2022-08-14T07:24:31.048Z,2.20
2022-08-14T07:26:33.499Z,2.35
2022-08-14T07:28:43.573Z,2.08
2022-08-14T07:30:50.854Z,2.40
2022-08-14T07:32:53.409Z,2.55
2022-08-14T07:34:56.923Z,2.28
2022-08-14T07:37:01.473Z,2.03
2022-08-14T07:39:12.511Z,1.92
2022-08-14T07:41:16.580Z,2.08
2022-08-14T07:43:18.535Z,2.15
2022-08-14T07:45:23.301Z,2.40
2022-08-14T07:47:25.257Z,2.13
2022-08-14T07:49:27.640Z,1.80
2022-08-14T07:51:36.765Z,1.90
2022-08-14T07:53:41.180Z,1.70
2022-08-14T07:55:43.026Z,1.80
2022-08-14T07:57:47.594Z,1.95
2022-08-14T07:59:54.013Z,1.67
2022-08-14T08:01:57.422Z,1.73
2022-08-14T08:04:03.993Z,1.90
2022-08-14T08:06:20.205Z,2.05
2022-08-14T08:08:27.278Z,2.03
2022-08-14T08:10:57.093Z,2.03
2022-08-14T08:12:57.018Z,1.90
2022-08-14T08:15:03.462Z,1.67
2022-08-14T08:19:14.066Z,1.63
2022-08-14T08:21:16.564Z,1.50
2022-08-14T08:23:23.280Z,1.50
2022-08-14T08:25:40.109Z,1.35
2022-08-14T08:27:44.906Z,2.28
2022-08-14T08:29:50.650Z,1.40
2022-08-14T08:31:52.993Z,2.22
2022-08-14T08:33:54.899Z,1.70
2022-08-14T08:36:07.896Z,2.38
2022-08-14T08:38:14.288Z,2.30
2022-08-14T08:40:42.268Z,1.70
2022-08-14T08:42:52.117Z,1.83
2022-08-14T08:46:59.442Z,2.05
2022-08-14T08:51:03.295Z,1.90
2022-08-14T08:53:09.706Z,1.70
2022-08-14T08:55:12.794Z,1.75
2022-08-14T08:57:15.625Z,1.50
2022-08-14T08:59:31.259Z,2.15
2022-08-14T09:01:35.877Z,1.95
2022-08-14T09:03:44.012Z,1.50
2022-08-14T09:05:58.612Z,2.28
2022-08-14T09:08:30.683Z,1.80
2022-08-14T09:10:32.737Z,1.70
2022-08-14T09:12:35.315Z,1.70
2022-08-14T09:14:37.208Z,1.50
2022-08-14T09:16:45.169Z,1.80
2022-08-14T09:18:50.544Z,1.45
2022-08-14T09:20:58.900Z,2.05
2022-08-14T09:23:01.564Z,1.67
2022-08-14T09:25:07.303Z,2.08
2022-08-14T09:27:22.184Z,1.80
2022-08-14T09:29:25.266Z,1.40
2022-08-14T09:31:49.025Z,1.55
2022-08-14T09:34:26.981Z,4.97
2022-08-14T09:37:04.724Z,1.80
2022-08-14T09:39:23.130Z,1.88
2022-08-14T09:42:21.919Z,1.65
2022-08-14T09:44:49.587Z,1.80
2022-08-14T09:46:58.220Z,1.80
2022-08-14T09:49:05.644Z,1.65
2022-08-14T09:53:10.986Z,1.30
2022-08-14T09:57:28.974Z,1.45
2022-08-14T09:59:40.930Z,1.80
2022-08-14T10:01:43.869Z,1.40
2022-08-14T10:03:55.632Z,1.40
2022-08-14T10:06:28.334Z,1.10
2022-08-14T10:08:44.446Z,0.98
2022-08-14T10:10:48.833Z,1.00
2022-08-14T10:12:59.880Z,1.13
2022-08-14T10:15:02.020Z,1.40
2022-08-14T10:17:07.006Z,1.38
2022-08-14T10:19:15.917Z,1.13
2022-08-14T10:21:18.330Z,1.30
2022-08-14T10:23:23.481Z,1.73
2022-08-14T10:25:26.898Z,1.77
2022-08-14T10:27:29.045Z,1.58
2022-08-14T10:29:43.550Z,1.40
2022-08-14T10:31:45.850Z,1.33
2022-08-14T10:34:12.892Z,1.38
2022-08-14T10:36:36.878Z,1.40
2022-08-14T10:38:42.541Z,1.42
2022-08-14T10:40:59.155Z,1.38
2022-08-14T10:43:02.792Z,2.03
2022-08-14T10:45:30.948Z,1.30
2022-08-14T10:48:02.654Z,1.20
2022-08-14T10:50:01.217Z,1.45
2022-08-14T10:52:11.150Z,1.58
2022-08-14T10:54:16.956Z,1.40
2022-08-14T10:56:36.781Z,1.48
2022-08-14T10:58:38.785Z,1.23
2022-08-14T11:00:55.482Z,1.30
2022-08-14T11:03:01.962Z,1.25
2022-08-14T11:05:19.381Z,1.30
2022-08-14T11:07:21.725Z,1.60
2022-08-14T11:09:26.258Z,0.90
2022-08-14T11:11:28.491Z,1.20
2022-08-14T11:13:41.972Z,0.98
2022-08-14T11:15:46.731Z,1.33
2022-08-14T11:17:50.423Z,0.90
2022-08-14T11:19:58.579Z,1.00
2022-08-14T11:22:02.014Z,1.02
2022-08-14T11:24:55.222Z,0.90
2022-08-14T11:26:30.587Z,0.95
2022-08-14T11:28:47.277Z,0.80
2022-08-14T11:30:54.270Z,0.68
2022-08-14T11:32:58.695Z,0.80
2022-08-14T11:35:03.456Z,0.80
2022-08-14T11:37:18.751Z,0.60
2022-08-14T11:39:34.556Z,0.82
2022-08-14T11:41:55.533Z,0.90
2022-08-14T11:43:58.812Z,0.98
2022-08-14T11:46:03.589Z,0.77
2022-08-14T11:49:02.165Z,1.23
2022-08-14T11:50:49.843Z,0.82
2022-08-14T11:52:53.818Z,0.70
2022-08-14T11:55:09.179Z,0.80
2022-08-14T11:57:15.403Z,0.50
2022-08-14T11:59:26.557Z,0.70
2022-08-14T12:01:38.209Z,0.70
2022-08-14T12:03:51.969Z,0.57
2022-08-14T12:06:28.744Z,0.63
2022-08-14T12:08:39.188Z,0.80
2022-08-14T12:10:43.540Z,0.80
2022-08-14T12:12:45.309Z,0.52
2022-08-14T12:14:56.434Z,0.73
2022-08-14T12:17:02.176Z,0.50
2022-08-14T12:19:06.147Z,0.70
2022-08-14T12:21:15.822Z,0.80
2022-08-14T12:23:24.783Z,0.85
2022-08-14T12:25:26.870Z,1.10
2022-08-14T12:27:41.228Z,0.85
2022-08-14T12:29:53.561Z,0.80
2022-08-14T12:32:06.700Z,0.70
2022-08-14T12:34:13.598Z,0.70
2022-08-14T12:36:22.315Z,1.50
2022-08-14T12:38:38.793Z,2.08
2022-08-14T12:40:51.513Z,1.98
2022-08-14T12:42:56.664Z,2.28
2022-08-14T12:45:03.994Z,2.05
2022-08-14T12:47:15.109Z,2.10
2022-08-14T12:49:18.952Z,1.95
2022-08-14T12:51:26.965Z,1.63
2022-08-14T12:53:38.584Z,1.33
2022-08-14T12:56:18.501Z,1.40
2022-08-14T12:58:28.906Z,1.05
2022-08-14T13:00:36.615Z,1.25
2022-08-14T13:02:43.970Z,1.10
2022-08-14T13:04:50.745Z,1.10
2022-08-14T13:06:55.780Z,1.02
2022-08-14T13:09:00.057Z,0.90
2022-08-14T13:11:06.442Z,1.08
2022-08-14T13:13:15.572Z,1.00
2022-08-14T13:15:19.374Z,1.45
2022-08-14T13:17:23.015Z,1.80
2022-08-14T13:19:28.214Z,1.42
2022-08-14T13:22:05.451Z,1.00
2022-08-14T13:23:54.795Z,1.70
2022-08-14T13:25:58.381Z,1.63
2022-08-14T13:28:11.415Z,1.40
2022-08-14T13:30:33.076Z,1.05
2022-08-14T13:32:36.443Z,1.08
2022-08-14T13:34:38.493Z,1.00
2022-08-14T13:36:54.786Z,0.80
2022-08-14T13:39:01.169Z,0.90
2022-08-14T13:41:04.027Z,0.80
2022-08-14T13:43:08.922Z,1.13
2022-08-14T13:45:12.019Z,0.80
2022-08-14T13:47:15.906Z,0.95
2022-08-14T13:49:18.447Z,0.85
2022-08-14T13:51:24.478Z,0.80
2022-08-14T13:53:28.012Z,1.25
2022-08-14T13:55:35.866Z,0.60
2022-08-14T13:57:49.539Z,0.70
2022-08-14T13:59:52.186Z,0.82
2022-08-14T14:02:05.202Z,1.00
2022-08-14T14:04:11.378Z,0.90
2022-08-14T14:06:24.190Z,0.85
2022-08-14T14:08:46.044Z,0.70
2022-08-14T14:10:48.877Z,0.65
2022-08-14T14:12:55.918Z,0.65
2022-08-14T14:15:05.031Z,0.90
2022-08-14T14:17:09.047Z,0.77
2022-08-14T14:19:16.992Z,0.82
2022-08-14T14:21:21.580Z,1.10
2022-08-14T14:23:24.107Z,1.15
2022-08-14T14:25:45.616Z,1.27
2022-08-14T14:27:53.560Z,1.48
2022-08-14T14:29:58.905Z,1.45
2022-08-14T14:32:02.301Z,0.90
2022-08-14T14:34:07.357Z,0.95
2022-08-14T14:36:21.447Z,0.95
2022-08-14T14:38:30.888Z,1.15
2022-08-14T14:40:52.866Z,1.20
2022-08-14T14:42:57.698Z,0.88
2022-08-14T14:45:15.533Z,0.80
2022-08-14T14:47:22.734Z,0.90
2022-08-14T14:49:41.531Z,1.52
2022-08-14T14:51:51.643Z,1.52
2022-08-14T14:53:54.274Z,0.80
2022-08-14T14:56:48.257Z,2.20
2022-08-14T14:58:20.528Z,9.23
2022-08-14T15:00:22.450Z,5.20
2022-08-14T15:02:37.281Z,1.40
2022-08-14T15:04:43.442Z,0.90
2022-08-14T15:06:47.849Z,1.50
2022-08-14T15:08:56.705Z,1.08
2022-08-14T15:13:04.478Z,1.10
2022-08-14T15:15:08.565Z,1.17
2022-08-14T15:17:11.046Z,1.20
2022-08-14T15:19:12.940Z,0.75
2022-08-14T15:21:15.396Z,1.00
2022-08-14T15:23:17.869Z,1.13
2022-08-14T15:25:24.377Z,0.80
2022-08-14T15:27:26.901Z,0.82
2022-08-14T15:29:30.137Z,1.60
2022-08-14T15:31:37.019Z,1.38
2022-08-14T15:34:33.775Z,1.30
2022-08-14T15:36:26.013Z,1.40
2022-08-14T15:38:34.017Z,1.50
2022-08-14T15:40:42.715Z,1.50
2022-08-14T15:42:45.483Z,2.20
2022-08-14T15:44:57.783Z,4.30
2022-08-14T15:47:07.067Z,2.40
2022-08-14T15:49:09.057Z,3.53
2022-08-14T15:51:11.640Z,1.00
2022-08-14T15:53:14.690Z,1.10
2022-08-14T15:55:16.568Z,1.08
2022-08-14T15:57:20.775Z,1.40
2022-08-14T15:59:22.471Z,1.88
2022-08-14T16:01:43.556Z,1.90
2022-08-14T16:03:49.201Z,3.80
2022-08-14T16:05:50.979Z,3.22
2022-08-14T16:07:53.640Z,1.70
2022-08-14T16:10:25.395Z,1.05
2022-08-14T16:12:19.199Z,0.90
2022-08-14T16:14:24.319Z,0.70
2022-08-14T16:16:49.412Z,1.48
2022-08-14T16:18:52.395Z,0.90
2022-08-14T16:20:57.491Z,0.98
2022-08-14T16:23:00.593Z,1.00
2022-08-14T16:25:05.288Z,1.05
2022-08-14T16:27:09.600Z,1.55
2022-08-14T16:29:22.519Z,1.45
2022-08-14T16:31:25.266Z,1.05
2022-08-14T16:33:58.863Z,1.58
2022-08-14T16:36:01.718Z,3.00
2022-08-14T16:38:19.343Z,1.73
2022-08-14T16:40:32.676Z,1.67
2022-08-14T16:42:39.186Z,2.38
2022-08-14T16:44:59.301Z,1.42
2022-08-14T16:47:04.174Z,1.38
2022-08-14T16:49:12.274Z,2.00
2022-08-14T16:51:17.792Z,1.60
2022-08-14T16:53:19.514Z,1.83
2022-08-14T16:55:30.272Z,1.38
2022-08-14T16:57:34.180Z,1.60
2022-08-14T16:59:51.902Z,1.85
2022-08-14T17:02:01.388Z,1.48
2022-08-14T17:04:24.407Z,1.33
2022-08-14T17:06:51.028Z,1.65
2022-08-14T17:08:52.775Z,1.35
2022-08-14T17:11:10.247Z,1.80
2022-08-14T17:13:20.010Z,1.55
2022-08-14T17:15:22.658Z,1.83
2022-08-14T17:17:42.735Z,1.35
2022-08-14T17:19:45.419Z,1.92
2022-08-14T17:21:57.697Z,1.38
2022-08-14T17:24:50.986Z,2.63
2022-08-14T17:26:55.294Z,1.77
2022-08-14T17:31:10.005Z,1.77
2022-08-14T17:33:26.318Z,1.98
2022-08-14T17:35:57.505Z,2.28
2022-08-14T17:37:55.976Z,1.58
2022-08-14T17:40:15.769Z,2.03
2022-08-14T17:42:32.592Z,1.57
2022-08-14T17:44:45.616Z,1.83
2022-08-14T17:47:05.748Z,1.77
2022-08-14T17:49:16.769Z,1.70
2022-08-14T17:51:23.629Z,2.45
2022-08-14T17:53:33.105Z,4.32
2022-08-14T17:56:01.252Z,2.38
2022-08-14T17:58:20.507Z,2.10
2022-08-14T18:00:23.604Z,1.92
2022-08-14T18:02:31.815Z,1.92
2022-08-14T18:04:35.538Z,1.80
2022-08-14T18:06:58.649Z,1.55
2022-08-14T18:09:04.624Z,2.25
2022-08-14T18:11:09.084Z,2.92
2022-08-14T18:13:17.386Z,2.90
2022-08-14T18:15:19.163Z,2.47
2022-08-14T18:17:22.992Z,2.13
2022-08-14T18:19:27.124Z,2.50
2022-08-14T18:21:41.450Z,3.13
2022-08-14T18:23:51.768Z,2.50
2022-08-14T18:25:54.858Z,2.63
2022-08-14T18:28:45.031Z,2.58
2022-08-14T18:30:58.864Z,2.45
2022-08-14T18:33:15.773Z,2.50
2022-08-14T18:35:45.395Z,2.10
2022-08-14T18:37:55.731Z,1.95
2022-08-14T18:40:18.466Z,2.55
2022-08-14T18:42:23.689Z,2.05
2022-08-14T18:44:51.186Z,2.13
2022-08-14T18:47:10.007Z,2.20
2022-08-14T18:49:17.200Z,2.83
2022-08-14T18:51:44.946Z,2.08
2022-08-14T18:53:59.329Z,2.05
2022-08-14T18:56:09.631Z,2.17
2022-08-14T18:58:26.552Z,2.05
2022-08-14T19:02:42.744Z,2.35
2022-08-14T19:04:45.182Z,2.20
2022-08-14T19:06:56.195Z,2.40
2022-08-14T19:08:58.732Z,2.40
2022-08-14T19:11:05.215Z,2.63
2022-08-14T19:13:11.816Z,3.17
2022-08-14T19:15:25.684Z,3.20
2022-08-14T19:18:15.029Z,2.38
2022-08-14T19:20:08.299Z,2.83
2022-08-14T19:22:22.451Z,2.75
2022-08-14T19:24:35.644Z,2.85
2022-08-14T19:26:54.625Z,2.25
2022-08-14T19:28:58.598Z,2.30
2022-08-14T19:31:22.709Z,2.47
2022-08-14T19:33:50.967Z,2.10
2022-08-14T19:35:55.918Z,2.72
2022-08-14T19:38:11.264Z,3.47
2022-08-14T19:40:42.745Z,2.97
2022-08-14T19:42:47.224Z,4.00
2022-08-14T19:44:52.222Z,3.20
2022-08-14T19:47:02.792Z,2.72
2022-08-14T19:49:08.702Z,4.50
2022-08-14T19:51:10.854Z,3.35
2022-08-14T19:53:16.922Z,2.72
2022-08-14T19:55:20.862Z,3.90
2022-08-14T19:57:36.666Z,3.38
2022-08-14T19:59:58.018Z,3.50
2022-08-14T20:02:00.326Z,4.05
2022-08-14T20:04:04.276Z,3.78
2022-08-14T20:06:08.590Z,3.67
2022-08-14T20:09:05.947Z,4.95
2022-08-14T20:11:06.962Z,3.85
2022-08-14T20:13:04.003Z,3.97
2022-08-14T20:15:15.395Z,4.47
2022-08-14T20:17:21.789Z,3.83
2022-08-14T20:19:28.772Z,4.05
2022-08-14T20:21:34.445Z,3.58
2022-08-14T20:23:38.207Z,4.75
2022-08-14T20:25:56.798Z,3.80
2022-08-14T20:28:29.979Z,4.18
2022-08-14T20:30:35.943Z,3.47
2022-08-14T20:32:44.342Z,3.35
2022-08-14T20:34:51.091Z,5.15
2022-08-14T20:37:09.576Z,4.28
2022-08-14T20:39:15.362Z,4.25
2022-08-14T20:41:20.597Z,4.15
2022-08-14T20:43:52.710Z,5.50
2022-08-14T20:45:55.247Z,5.40
2022-08-14T20:48:17.097Z,5.93
2022-08-14T20:50:44.928Z,4.82
2022-08-14T20:52:48.557Z,5.53
2022-08-14T20:54:51.634Z,4.93
2022-08-14T20:56:56.018Z,4.82
2022-08-14T20:58:58.101Z,4.60
2022-08-14T21:01:04.837Z,5.18
2022-08-14T21:03:30.069Z,4.90
2022-08-14T21:05:34.047Z,3.70
2022-08-14T21:07:38.898Z,3.00
2022-08-14T21:10:06.396Z,3.70
2022-08-14T21:12:08.771Z,3.20
2022-08-14T21:14:30.905Z,3.25
2022-08-14T21:16:41.659Z,2.40
2022-08-14T21:19:02.182Z,2.70
2022-08-14T21:21:09.630Z,2.28
2022-08-14T21:23:14.463Z,2.72
2022-08-14T21:25:16.897Z,2.30
2022-08-14T21:27:23.587Z,2.40
2022-08-14T21:29:25.809Z,2.55
2022-08-14T21:31:30.091Z,2.95
2022-08-14T21:33:35.715Z,2.30
2022-08-14T21:35:45.809Z,2.10
2022-08-14T21:37:50.687Z,2.63
2022-08-14T21:39:58.352Z,2.03
2022-08-14T21:42:00.912Z,2.90
2022-08-14T21:44:17.506Z,2.28
2022-08-14T21:46:22.385Z,2.88
2022-08-14T21:48:30.011Z,3.00
2022-08-14T21:50:39.514Z,3.22
2022-08-14T21:53:00.730Z,2.83
2022-08-14T21:55:08.720Z,2.85
2022-08-14T21:57:15.709Z,3.38
2022-08-14T21:59:29.005Z,2.90
2022-08-14T22:01:59.512Z,2.13
2022-08-14T22:03:59.304Z,2.15
2022-08-14T22:06:04.323Z,2.17
2022-08-14T22:08:13.877Z,2.53
2022-08-14T22:10:22.928Z,2.08
2022-08-14T22:12:45.421Z,1.55
2022-08-14T22:14:48.356Z,1.58
2022-08-14T22:17:03.355Z,1.48
2022-08-14T22:19:15.223Z,1.58
2022-08-14T22:21:21.580Z,1.65
2022-08-14T22:23:25.832Z,1.45
2022-08-14T22:25:34.137Z,1.67
2022-08-14T22:27:56.061Z,1.75
2022-08-14T22:29:58.729Z,1.65
2022-08-14T22:32:00.825Z,1.65
2022-08-14T22:34:10.726Z,1.63
2022-08-14T22:36:42.418Z,1.60
2022-08-14T22:38:49.720Z,2.22
2022-08-14T22:41:15.040Z,1.50
2022-08-14T22:43:15.920Z,1.67
2022-08-14T22:45:18.195Z,1.55
2022-08-14T22:47:24.836Z,1.63
2022-08-14T22:50:30.726Z,1.60
2022-08-14T22:51:53.725Z,1.60
2022-08-14T22:53:58.422Z,1.67
2022-08-14T22:56:00.929Z,1.63
2022-08-14T22:58:17.444Z,1.65
2022-08-14T23:00:25.563Z,1.48
2022-08-14T23:02:32.668Z,1.40
2022-08-14T23:04:54.510Z,1.58
2022-08-14T23:07:04.715Z,1.67
2022-08-14T23:09:34.949Z,1.38
2022-08-14T23:11:29.965Z,1.40
2022-08-14T23:13:33.190Z,1.83
2022-08-14T23:15:37.681Z,1.27
2022-08-14T23:17:40.708Z,1.38
2022-08-14T23:19:43.968Z,1.10
2022-08-14T23:21:48.194Z,1.02
2022-08-14T23:23:51.460Z,1.42
2022-08-14T23:26:47.095Z,1.20
2022-08-14T23:28:34.989Z,1.33
2022-08-14T23:30:49.115Z,0.82
2022-08-14T23:32:54.400Z,1.08
2022-08-14T23:34:56.564Z,1.00
2022-08-14T23:36:59.641Z,1.20
2022-08-14T23:39:10.385Z,1.35
2022-08-14T23:41:22.070Z,0.95
2022-08-14T23:43:24.794Z,1.00
2022-08-14T23:45:36.608Z,1.20
2022-08-14T23:47:51.654Z,1.15
2022-08-14T23:50:03.697Z,1.13
2022-08-14T23:52:50.375Z,1.27
2022-08-14T23:54:49.380Z,0.80
2022-08-14T23:57:02.759Z,1.13
2022-08-14T23:59:05.887Z,1.30
